Time;durP1;ratioP1;P1;durP2;ratioP2;P2;SDS_P1;SDS_P2;PMS_P1;PMS_P2;Temp;Humidity;BMP_temperature;BMP_pressure;BME280_temperature;BME280_humidity;BME280_pressure;Samples;Min_cycle;Max_cycle;Signal;HPM_P1;HPM_P2
2023/11/22 00:01:51;;;;;;;13.25;7.15;;;8.30;99.90;;;;;;4990983;28;20050;-75
2023/11/22 00:04:17;;;;;;;16.17;7.70;;;8.30;99.90;;;;;;4991317;28;20534;-75
2023/11/22 00:06:43;;;;;;;15.77;7.60;;;8.30;99.90;;;;;;4991032;28;20512;-75
2023/11/22 00:09:09;;;;;;;17.97;8.23;;;8.20;99.90;;;;;;4991832;28;20038;-75
2023/11/22 00:11:35;;;;;;;13.75;7.60;;;8.20;99.90;;;;;;4992239;28;20037;-74
2023/11/22 00:14:01;;;;;;;16.47;8.20;;;8.10;99.90;;;;;;4993844;28;20030;-74
2023/11/22 00:16:27;;;;;;;15.20;8.73;;;8.10;99.90;;;;;;4994245;28;20597;-74
2023/11/22 00:18:52;;;;;;;15.40;8.43;;;8.20;99.90;;;;;;4992738;28;20157;-74
2023/11/22 00:21:19;;;;;;;16.40;7.57;;;8.20;99.90;;;;;;4991593;28;20530;-74
2023/11/22 00:23:46;;;;;;;17.58;8.48;;;8.20;99.90;;;;;;4991954;28;20049;-74
2023/11/22 00:26:12;;;;;;;15.18;8.35;;;8.20;99.90;;;;;;4990546;28;20037;-74
2023/11/22 00:28:37;;;;;;;15.27;8.73;;;8.10;99.90;;;;;;4991267;28;20038;-75
2023/11/22 00:31:03;;;;;;;14.90;8.47;;;8.00;99.90;;;;;;4991377;28;20542;-75
2023/11/22 00:33:31;;;;;;;14.10;8.00;;;8.00;99.90;;;;;;4991129;28;20125;-74
2023/11/22 00:35:58;;;;;;;18.38;8.65;;;8.00;99.90;;;;;;4991149;28;20688;-74
2023/11/22 00:38:23;;;;;;;24.70;9.10;;;7.90;99.90;;;;;;4990982;28;20038;-74
2023/11/22 00:40:50;;;;;;;15.20;8.48;;;7.90;99.90;;;;;;4990965;28;20399;-75
2023/11/22 00:43:15;;;;;;;18.83;8.63;;;7.90;99.90;;;;;;4991418;28;20029;-74
2023/11/22 00:45:41;;;;;;;16.40;9.10;;;7.90;99.90;;;;;;4991602;28;20106;-74
2023/11/22 00:48:07;;;;;;;16.53;7.90;;;7.80;99.90;;;;;;4991396;28;20026;-74
2023/11/22 00:50:33;;;;;;;19.00;9.77;;;7.90;99.90;;;;;;4991457;28;20042;-75
2023/11/22 00:52:58;;;;;;;18.20;8.80;;;7.80;99.90;;;;;;4989984;28;20439;-74
2023/11/22 00:55:24;;;;;;;19.97;8.83;;;7.90;99.90;;;;;;4990297;28;20038;-75
2023/11/22 00:57:49;;;;;;;15.63;8.53;;;7.90;99.90;;;;;;4990401;28;20048;-74
2023/11/22 01:00:15;;;;;;;18.67;8.63;;;8.00;99.90;;;;;;4991104;28;20146;-74
2023/11/22 01:02:41;;;;;;;16.58;8.98;;;8.00;99.90;;;;;;4990897;28;20034;-75
2023/11/22 01:05:12;;;;;;;15.63;9.30;;;8.00;99.90;;;;;;4990845;28;20122;-74
2023/11/22 01:07:38;;;;;;;22.90;9.68;;;8.00;99.90;;;;;;4990948;28;20064;-74
2023/11/22 01:10:05;;;;;;;17.45;9.25;;;8.00;99.90;;;;;;4990401;28;20030;-74
2023/11/22 01:12:31;;;;;;;30.95;9.65;;;8.10;99.90;;;;;;4990122;28;20061;-74
2023/11/22 01:14:57;;;;;;;18.50;9.48;;;8.00;99.90;;;;;;4991346;28;20025;-74
2023/11/22 01:17:23;;;;;;;16.23;8.83;;;8.10;99.90;;;;;;4991001;28;20031;-74
2023/11/22 01:19:50;;;;;;;16.33;9.40;;;8.10;99.90;;;;;;4990591;28;20053;-74
2023/11/22 01:22:17;;;;;;;14.52;8.70;;;8.10;99.90;;;;;;4991896;28;20057;-74
2023/11/22 01:24:42;;;;;;;;;;;8.10;99.90;;;;;;4991377;28;20392;-74
2023/11/22 01:27:08;;;;;;;20.15;9.57;;;8.00;99.90;;;;;;4990243;28;19905;-75
2023/11/22 01:29:34;;;;;;;16.17;8.87;;;8.00;99.90;;;;;;4990839;28;20189;-74
2023/11/22 01:32:00;;;;;;;16.67;9.80;;;8.10;99.90;;;;;;4990148;28;20035;-74
2023/11/22 01:34:26;;;;;;;19.65;9.57;;;8.00;99.90;;;;;;4990627;28;20018;-74
2023/11/22 01:36:52;;;;;;;22.33;9.77;;;8.10;99.90;;;;;;4989451;28;20026;-74
2023/11/22 01:39:18;;;;;;;16.50;10.05;;;8.20;99.90;;;;;;4990658;28;20038;-74
2023/11/22 01:41:49;;;;;;;23.10;9.10;;;8.10;99.90;;;;;;4990809;28;20022;-74
2023/11/22 01:44:15;;;;;;;21.67;9.85;;;8.10;99.90;;;;;;4990269;28;20492;-74
2023/11/22 01:46:42;;;;;;;22.48;10.80;;;8.10;99.90;;;;;;4989092;28;20062;-74
2023/11/22 01:49:10;;;;;;;26.85;9.77;;;8.10;99.90;;;;;;4990966;28;20118;-74
2023/11/22 01:51:37;;;;;;;17.00;10.10;;;8.10;99.90;;;;;;4988993;28;20045;-74
2023/11/22 01:54:03;;;;;;;14.93;9.43;;;8.10;99.90;;;;;;4990759;28;20026;-75
2023/11/22 01:56:30;;;;;;;15.73;9.43;;;8.00;99.90;;;;;;4990607;28;20060;-75
2023/11/22 01:58:57;;;;;;;24.60;10.65;;;8.00;99.90;;;;;;4995396;28;20026;-74
2023/11/22 02:01:22;;;;;;;;;;;8.10;99.90;;;;;;5010932;28;20448;-74
2023/11/22 02:03:48;;;;;;;16.17;9.20;;;8.10;99.90;;;;;;5010343;28;20004;-74
2023/11/22 02:06:16;;;;;;;17.27;9.60;;;8.10;99.90;;;;;;5010661;28;20033;-74
2023/11/22 02:08:42;;;;;;;15.95;8.88;;;8.00;99.90;;;;;;5010312;28;20030;-74
2023/11/22 02:11:08;;;;;;;18.10;10.02;;;8.10;99.90;;;;;;5010171;28;20113;-74
2023/11/22 02:13:34;;;;;;;15.73;8.60;;;8.10;99.90;;;;;;4996173;28;20042;-74
2023/11/22 02:16:01;;;;;;;16.60;9.47;;;8.10;99.90;;;;;;4990185;28;20077;-74
2023/11/22 02:18:27;;;;;;;19.45;10.50;;;8.10;99.90;;;;;;4990308;28;20492;-74
2023/11/22 02:20:53;;;;;;;22.33;10.02;;;8.10;99.90;;;;;;4990567;28;20054;-74
2023/11/22 02:23:18;;;;;;;15.43;9.47;;;8.00;99.90;;;;;;4991767;28;20027;-74
2023/11/22 02:25:45;;;;;;;17.60;9.57;;;8.10;99.90;;;;;;4994727;28;20281;-74
2023/11/22 02:28:11;;;;;;;13.32;8.30;;;8.10;99.90;;;;;;4993873;28;20364;-74
2023/11/22 02:30:38;;;;;;;15.10;8.75;;;8.00;99.90;;;;;;4993525;28;20066;-74
2023/11/22 02:33:07;;;;;;;15.55;9.10;;;8.00;99.90;;;;;;4993595;28;20050;-74
2023/11/22 02:35:33;;;;;;;17.48;10.25;;;8.10;99.90;;;;;;4994141;28;20034;-74
2023/11/22 02:37:59;;;;;;;20.23;9.30;;;8.20;99.90;;;;;;4994124;28;20042;-74
2023/11/22 02:40:25;;;;;;;;;;;8.20;99.90;;;;;;4994778;28;20022;-74
2023/11/22 02:42:52;;;;;;;16.38;9.27;;;8.20;99.90;;;;;;4993925;28;20369;-74
2023/11/22 02:45:23;;;;;;;18.00;10.98;;;8.10;99.90;;;;;;4993747;28;20529;-74
2023/11/22 02:47:49;;;;;;;22.55;10.15;;;8.20;99.90;;;;;;4993479;28;20108;-74
2023/11/22 02:50:16;;;;;;;19.43;9.90;;;8.20;99.90;;;;;;4993890;28;20046;-75
2023/11/22 02:52:42;;;;;;;;;;;8.20;99.90;;;;;;4992520;28;20289;-74
2023/11/22 02:55:11;;;;;;;19.15;10.50;;;8.20;99.90;;;;;;4993783;28;19910;-74
2023/11/22 02:57:39;;;;;;;20.55;10.95;;;8.20;99.90;;;;;;4993977;28;20061;-74
2023/11/22 03:00:05;;;;;;;18.40;10.25;;;8.20;99.90;;;;;;4993938;28;20030;-74
2023/11/22 03:02:32;;;;;;;17.73;9.50;;;8.10;99.90;;;;;;4993780;28;20100;-74
2023/11/22 03:04:58;;;;;;;15.48;9.73;;;8.20;99.90;;;;;;4993195;28;20027;-74
2023/11/22 03:07:25;;;;;;;17.40;10.35;;;8.20;99.90;;;;;;4993286;28;20388;-74
2023/11/22 03:09:51;;;;;;;19.27;10.85;;;8.20;99.90;;;;;;4993346;28;20034;-74
2023/11/22 03:12:18;;;;;;;20.67;10.48;;;8.20;99.90;;;;;;4992435;28;20483;-74
2023/11/22 03:14:43;;;;;;;22.10;10.60;;;8.20;99.90;;;;;;4993574;28;20053;-74
2023/11/22 03:17:09;;;;;;;17.10;11.30;;;8.30;99.90;;;;;;4994173;28;20512;-74
2023/11/22 03:19:34;;;;;;;22.50;10.67;;;8.20;99.90;;;;;;4994750;28;20579;-74
2023/11/22 03:22:02;;;;;;;19.73;10.63;;;8.20;99.90;;;;;;4992826;28;20026;-74
2023/11/22 03:24:29;;;;;;;26.60;11.07;;;8.20;99.90;;;;;;4993247;28;20022;-74
2023/11/22 03:26:58;;;;;;;22.00;11.23;;;8.10;99.90;;;;;;4992896;28;20533;-73
2023/11/22 03:29:24;;;;;;;20.45;11.63;;;8.10;99.90;;;;;;4993489;28;20022;-74
2023/11/22 03:31:51;;;;;;;26.70;11.50;;;8.20;99.90;;;;;;4993355;28;20121;-73
2023/11/22 03:34:16;;;;;;;;;;;8.10;99.90;;;;;;4993170;28;20038;-73
2023/11/22 03:36:42;;;;;;;18.17;9.90;;;8.10;99.90;;;;;;4992037;28;19909;-73
2023/11/22 03:39:10;;;;;;;19.58;10.93;;;8.10;99.90;;;;;;4992958;28;20034;-74
2023/11/22 03:41:37;;;;;;;27.02;11.25;;;8.00;99.90;;;;;;4993122;28;20037;-74
2023/11/22 03:44:04;;;;;;;20.92;10.93;;;8.10;99.90;;;;;;4992321;28;20062;-74
2023/11/22 03:46:30;;;;;;;19.83;11.15;;;8.10;99.90;;;;;;4992456;28;20364;-74
2023/11/22 03:48:55;;;;;;;21.27;10.88;;;8.10;99.90;;;;;;4992749;28;20046;-74
2023/11/22 03:51:21;;;;;;;20.43;10.43;;;8.00;99.90;;;;;;4992835;28;20042;-73
2023/11/22 03:53:46;;;;;;;19.03;10.83;;;8.10;99.90;;;;;;4992755;28;20022;-73
2023/11/22 03:56:12;;;;;;;18.27;11.30;;;8.10;99.90;;;;;;4993063;28;20117;-74
2023/11/22 03:58:39;;;;;;;22.20;11.67;;;8.10;99.90;;;;;;4992430;28;20488;-74
2023/11/22 04:01:05;;;;;;;21.80;11.50;;;8.10;99.90;;;;;;4992673;28;20085;-74
2023/11/22 04:03:32;;;;;;;24.70;12.27;;;8.10;99.90;;;;;;4992644;28;20508;-74
2023/11/22 04:05:57;;;;;;;24.85;11.13;;;8.10;99.90;;;;;;4992635;28;20121;-74
2023/11/22 04:08:24;;;;;;;26.33;11.60;;;8.20;99.90;;;;;;5010252;28;20125;-73
2023/11/22 04:10:49;;;;;;;21.88;10.82;;;8.10;99.90;;;;;;5011302;28;20034;-74
2023/11/22 04:13:15;;;;;;;21.57;11.30;;;8.10;99.90;;;;;;5011974;28;20048;-74
2023/11/22 04:15:40;;;;;;;18.03;10.77;;;8.00;99.90;;;;;;5011693;28;20037;-74
2023/11/22 04:18:06;;;;;;;17.37;10.60;;;8.00;99.90;;;;;;5011774;28;20057;-74
2023/11/22 04:20:32;;;;;;;19.50;11.20;;;8.00;99.90;;;;;;5009693;28;20551;-74
2023/11/22 04:22:57;;;;;;;20.17;11.23;;;8.10;99.90;;;;;;4992137;28;20106;-74
2023/11/22 04:25:23;;;;;;;20.17;10.87;;;8.10;99.90;;;;;;4992363;28;20551;-73
2023/11/22 04:27:49;;;;;;;22.67;11.23;;;8.10;99.90;;;;;;4992173;28;20041;-73
2023/11/22 04:30:17;;;;;;;21.43;12.83;;;8.10;99.90;;;;;;4992408;28;20034;-74
2023/11/22 04:32:43;;;;;;;22.70;11.98;;;8.10;99.90;;;;;;4992260;28;20036;-74
2023/11/22 04:35:09;;;;;;;25.38;12.52;;;8.20;99.90;;;;;;4991856;28;20034;-74
2023/11/22 04:37:35;;;;;;;;;;;8.10;99.90;;;;;;4992965;28;20413;-74
2023/11/22 04:40:03;;;;;;;21.92;12.50;;;8.10;99.90;;;;;;4991698;28;19912;-74
2023/11/22 04:42:29;;;;;;;28.08;13.40;;;8.10;99.90;;;;;;4992023;28;20037;-74
2023/11/22 04:44:54;;;;;;;25.90;13.03;;;8.10;99.90;;;;;;4992005;28;20113;-73
2023/11/22 04:47:21;;;;;;;21.63;13.00;;;8.10;99.90;;;;;;4991746;28;20026;-74
2023/11/22 04:49:48;;;;;;;25.10;12.85;;;8.10;99.90;;;;;;4991237;28;20073;-73
2023/11/22 04:52:14;;;;;;;25.33;13.95;;;8.10;99.90;;;;;;4991235;28;20416;-74
2023/11/22 04:54:39;;;;;;;23.15;12.57;;;8.20;99.90;;;;;;4991091;28;20038;-74
2023/11/22 04:57:05;;;;;;;20.45;13.38;;;8.10;99.90;;;;;;4991365;28;20395;-73
2023/11/22 04:59:31;;;;;;;38.13;12.77;;;8.10;99.90;;;;;;4991764;28;20030;-74
2023/11/22 05:01:57;;;;;;;25.17;11.88;;;8.10;99.90;;;;;;4991405;28;20781;-74
2023/11/22 05:04:22;;;;;;;21.60;12.33;;;8.10;99.90;;;;;;4990815;28;20558;-74
2023/11/22 05:06:48;;;;;;;20.87;11.67;;;8.20;99.90;;;;;;4991140;28;20030;-74
2023/11/22 05:09:14;;;;;;;28.47;13.40;;;8.20;99.90;;;;;;4991370;28;20038;-74
2023/11/22 05:11:42;;;;;;;29.77;14.80;;;8.10;99.90;;;;;;4991498;28;20022;-75
2023/11/22 05:14:08;;;;;;;22.27;12.40;;;8.20;99.90;;;;;;4982209;28;20105;-75
2023/11/22 05:16:34;;;;;;;28.80;12.27;;;8.20;99.90;;;;;;4982110;28;20030;-75
2023/11/22 05:19:00;;;;;;;24.60;12.35;;;8.20;99.90;;;;;;4980940;28;20042;-74
2023/11/22 05:21:26;;;;;;;29.33;12.93;;;8.20;99.90;;;;;;4980868;28;20440;-74
2023/11/22 05:23:54;;;;;;;24.53;11.83;;;8.10;99.90;;;;;;4978644;28;20038;-74
2023/11/22 05:26:20;;;;;;;23.65;11.50;;;8.10;99.90;;;;;;4999452;28;20141;-75
2023/11/22 05:28:47;;;;;;;23.48;11.90;;;8.10;99.90;;;;;;4983182;28;20117;-74
2023/11/22 05:31:13;;;;;;;21.23;11.77;;;8.10;99.90;;;;;;4982700;28;20069;-75
2023/11/22 05:33:39;;;;;;;22.27;12.52;;;8.10;99.90;;;;;;4976152;28;20090;-75
2023/11/22 05:36:05;;;;;;;;;;;8.10;99.90;;;;;;4978505;28;20026;-75
2023/11/22 05:38:33;;;;;;;19.45;11.40;;;8.20;99.90;;;;;;4984674;28;19971;-75
2023/11/22 05:40:59;;;;;;;24.30;12.57;;;8.20;99.90;;;;;;4991229;28;20026;-75
2023/11/22 05:43:26;;;;;;;20.67;11.30;;;8.10;99.90;;;;;;4983734;28;20112;-75
2023/11/22 05:45:53;;;;;;;28.20;13.18;;;8.00;99.90;;;;;;4985184;28;20039;-74
2023/11/22 05:48:19;;;;;;;20.85;11.27;;;8.10;99.90;;;;;;4983706;28;20023;-75
2023/11/22 05:50:45;;;;;;;23.10;12.00;;;8.20;99.90;;;;;;4990444;28;20508;-75
2023/11/22 05:53:11;;;;;;;22.15;12.00;;;8.10;99.90;;;;;;4984941;28;20130;-75
2023/11/22 05:55:37;;;;;;;24.27;12.37;;;8.20;99.90;;;;;;4979673;28;20693;-75
2023/11/22 05:58:03;;;;;;;;;;;8.20;99.90;;;;;;4983570;28;20076;-75
2023/11/22 06:00:29;;;;;;;23.83;11.07;;;8.10;99.90;;;;;;4988940;28;19909;-75
2023/11/22 06:02:55;;;;;;;21.52;12.13;;;8.10;99.90;;;;;;4986994;28;20039;-75
2023/11/22 06:05:21;;;;;;;22.77;11.55;;;8.10;99.90;;;;;;4981321;28;20041;-75
2023/11/22 06:07:47;;;;;;;23.77;12.35;;;8.10;99.90;;;;;;4984447;28;20069;-75
2023/11/22 06:10:14;;;;;;;21.92;11.05;;;8.10;99.90;;;;;;4984296;28;20059;-75
2023/11/22 06:12:39;;;;;;;;;;;8.10;99.90;;;;;;4985824;28;20043;-75
2023/11/22 06:15:06;;;;;;;27.55;12.40;;;8.00;99.90;;;;;;4985472;28;19906;-75
2023/11/22 06:17:31;;;;;;;20.65;12.18;;;8.00;99.90;;;;;;4985410;28;20038;-75
2023/11/22 06:19:57;;;;;;;24.80;12.67;;;8.00;99.90;;;;;;4987517;28;20042;-75
2023/11/22 06:22:23;;;;;;;19.77;10.73;;;7.90;99.90;;;;;;4982737;28;20034;-75
2023/11/22 06:24:48;;;;;;;19.25;11.43;;;8.00;99.90;;;;;;4988625;28;20117;-75
2023/11/22 06:27:17;;;;;;;21.23;11.47;;;8.00;99.90;;;;;;4988555;28;20049;-76
2023/11/22 06:29:46;;;;;;;23.63;12.65;;;8.00;99.90;;;;;;4989610;28;20037;-75
2023/11/22 06:32:12;;;;;;;28.00;12.52;;;8.00;99.90;;;;;;4989886;28;20034;-75
2023/11/22 06:34:38;;;;;;;22.43;12.70;;;8.00;99.90;;;;;;4983406;28;20078;-75
2023/11/22 06:37:04;;;;;;;21.02;10.80;;;8.00;99.90;;;;;;4996612;28;20061;-74
2023/11/22 06:39:30;;;;;;;23.75;12.48;;;7.90;99.90;;;;;;4983469;28;20038;-75
2023/11/22 06:41:56;;;;;;;19.70;11.93;;;7.90;99.90;;;;;;4989778;28;20014;-75
2023/11/22 06:44:22;;;;;;;27.90;13.68;;;7.90;99.90;;;;;;4989426;28;20424;-74
2023/11/22 06:46:48;;;;;;;23.23;12.50;;;7.90;99.90;;;;;;4987779;28;20026;-75
2023/11/22 06:49:14;;;;;;;25.63;12.10;;;8.00;99.90;;;;;;4989053;28;20039;-75
2023/11/22 06:51:39;;;;;;;22.42;13.20;;;8.00;99.90;;;;;;4983345;28;20026;-75
2023/11/22 06:54:06;;;;;;;23.30;13.23;;;8.00;99.90;;;;;;4983494;28;20125;-75
2023/11/22 06:56:32;;;;;;;;;;;8.00;99.90;;;;;;4988937;28;20472;-75
2023/11/22 06:58:58;;;;;;;29.02;13.52;;;8.00;99.90;;;;;;4994255;28;19954;-74
2023/11/22 07:01:25;;;;;;;30.83;12.77;;;8.00;99.90;;;;;;4980766;28;20109;-75
2023/11/22 07:03:52;;;;;;;30.10;13.32;;;8.00;99.90;;;;;;4982993;28;20030;-74
2023/11/22 07:06:18;;;;;;;27.55;13.50;;;8.00;99.90;;;;;;4976015;28;20170;-74
2023/11/22 07:08:45;;;;;;;29.63;14.07;;;8.00;99.90;;;;;;4978736;28;20504;-74
2023/11/22 07:11:11;;;;;;;26.38;14.05;;;8.10;99.90;;;;;;4989791;28;20031;-74
2023/11/22 07:13:38;;;;;;;29.00;15.20;;;8.00;99.90;;;;;;4987182;28;20057;-73
2023/11/22 07:16:04;;;;;;;28.23;13.90;;;8.00;99.90;;;;;;4983046;28;20023;-74
2023/11/22 07:18:32;;;;;;;21.92;12.95;;;8.10;99.90;;;;;;4984526;28;20417;-74
2023/11/22 07:20:57;;;;;;;26.42;13.55;;;8.10;99.90;;;;;;4989938;28;20022;-74
2023/11/22 07:23:27;;;;;;;23.73;13.73;;;8.20;99.90;;;;;;4982912;28;20027;-74
2023/11/22 07:25:52;;;;;;;32.25;14.35;;;8.20;99.90;;;;;;4991019;28;20053;-72
2023/11/22 07:28:18;;;;;;;26.90;13.37;;;8.30;99.90;;;;;;4988093;28;20061;-74
2023/11/22 07:30:44;;;;;;;30.90;14.00;;;8.30;99.90;;;;;;4990489;28;20034;-74
2023/11/22 07:33:10;;;;;;;29.10;15.13;;;8.30;99.90;;;;;;4986456;28;20105;-74
2023/11/22 07:35:36;;;;;;;24.35;13.32;;;8.20;99.90;;;;;;4983361;28;20023;-75
2023/11/22 07:38:03;;;;;;;25.92;13.65;;;8.10;99.90;;;;;;4998418;28;20054;-74
2023/11/22 07:40:29;;;;;;;21.63;13.20;;;8.00;99.90;;;;;;4990008;28;20022;-74
2023/11/22 07:42:55;;;;;;;28.60;13.97;;;8.00;99.90;;;;;;4990041;28;20475;-78
2023/11/22 07:45:20;;;;;;;26.93;12.97;;;8.00;99.90;;;;;;4989707;28;20467;-72
2023/11/22 07:47:47;;;;;;;22.67;13.00;;;8.40;99.90;;;;;;4987297;28;20117;-73
2023/11/22 07:50:12;;;;;;;22.30;13.05;;;9.00;99.90;;;;;;4988408;28;20462;-72
2023/11/22 07:52:40;;;;;;;26.77;13.40;;;9.70;99.90;;;;;;4986600;28;20058;-72
2023/11/22 07:55:09;;;;;;;19.20;11.25;;;9.90;99.90;;;;;;4999162;28;20868;-72
2023/11/22 07:57:35;;;;;;;20.60;12.27;;;9.60;99.90;;;;;;4988239;28;20030;-72
2023/11/22 08:00:04;;;;;;;24.73;11.93;;;11.50;99.90;;;;;;4989637;28;20018;-72
2023/11/22 08:02:30;;;;;;;19.80;11.13;;;11.70;99.90;;;;;;4987030;28;20027;-75
2023/11/22 08:04:56;;;;;;;18.13;10.95;;;12.70;98.60;;;;;;4989844;28;20113;-73
2023/11/22 08:07:22;;;;;;;19.93;9.77;;;13.00;96.90;;;;;;4989462;28;20118;-72
2023/11/22 08:09:48;;;;;;;19.77;9.88;;;13.90;94.30;;;;;;4986020;28;20041;-72
2023/11/22 08:12:13;;;;;;;17.60;9.87;;;15.20;90.90;;;;;;4992415;28;20400;-72
2023/11/22 08:14:40;;;;;;;16.27;9.63;;;15.10;88.60;;;;;;4985710;28;20083;-72
2023/11/22 08:17:06;;;;;;;18.40;10.35;;;15.30;88.10;;;;;;4985812;28;20038;-72
2023/11/22 08:19:32;;;;;;;18.92;10.23;;;15.10;87.50;;;;;;4984894;28;20069;-78
2023/11/22 08:21:57;;;;;;;14.87;9.37;;;13.40;91.30;;;;;;4981078;28;20400;-78
2023/11/22 08:24:23;;;;;;;17.20;8.73;;;15.40;88.60;;;;;;4982497;28;20102;-79
2023/11/22 08:26:49;;;;;;;21.80;8.95;;;13.80;90.30;;;;;;4986670;28;20030;-77
2023/11/22 08:29:15;;;;;;;14.40;8.70;;;12.70;92.00;;;;;;4987343;28;20035;-76
2023/11/22 08:31:41;;;;;;;16.88;9.35;;;11.20;96.10;;;;;;4990409;28;20068;-76
2023/11/22 08:34:07;;;;;;;14.05;8.60;;;10.70;99.90;;;;;;4992906;28;20038;-76
2023/11/22 08:36:36;;;;;;;14.73;8.73;;;11.70;99.10;;;;;;4985436;28;20723;-77
2023/11/22 08:39:04;;;;;;;17.20;8.63;;;14.30;92.20;;;;;;4980642;28;20035;-76
2023/11/22 08:41:31;;;;;;;14.27;8.30;;;12.40;93.50;;;;;;4985653;28;20504;-77
2023/11/22 08:43:57;;;;;;;17.58;7.57;;;11.60;96.00;;;;;;4985780;28;20041;-77
2023/11/22 08:46:23;;;;;;;11.77;7.57;;;11.30;98.20;;;;;;4980913;28;20030;-77
2023/11/22 08:48:50;;;;;;;10.77;7.53;;;11.30;99.90;;;;;;4985602;28;20780;-76
2023/11/22 08:51:17;;;;;;;14.85;7.47;;;11.10;99.90;;;;;;4992089;28;20569;-87
2023/11/22 08:53:44;;;;;;;;;;;11.20;99.90;;;;;;4979384;28;20034;-74
2023/11/22 08:56:11;;;;;;;10.63;7.38;;;11.30;98.90;;;;;;4987351;28;19920;-80
2023/11/22 08:58:38;;;;;;;12.82;7.05;;;11.50;99.90;;;;;;4989384;28;20113;-79
2023/11/22 09:01:05;;;;;;;8.60;5.82;;;11.20;99.60;;;;;;4982540;28;20093;-73
2023/11/22 09:03:31;;;;;;;11.77;7.20;;;11.20;99.70;;;;;;4984241;28;20035;-79
2023/11/22 09:05:57;;;;;;;11.98;6.45;;;11.10;99.80;;;;;;4984422;28;20042;-77
2023/11/22 09:08:23;;;;;;;;;;;11.00;99.90;;;;;;4979122;28;20027;-78
2023/11/22 09:10:48;;;;;;;13.43;7.45;;;11.00;99.90;;;;;;5004054;28;20824;-81
2023/11/22 09:13:16;;;;;;;12.07;7.35;;;10.70;99.90;;;;;;4989517;28;20100;-73
2023/11/22 09:15:44;;;;;;;10.95;6.88;;;10.60;99.90;;;;;;4986138;28;20026;-74
2023/11/22 09:18:13;;;;;;;12.70;7.05;;;10.70;99.90;;;;;;5001701;28;20096;-73
2023/11/22 09:20:39;;;;;;;9.88;6.30;;;10.60;99.90;;;;;;4979502;28;20030;-73
2023/11/22 09:23:05;;;;;;;13.93;7.18;;;10.60;99.90;;;;;;4980245;28;20026;-73
2023/11/22 09:25:33;;;;;;;15.25;6.82;;;10.50;99.90;;;;;;4978000;28;20123;-73
2023/11/22 09:28:01;;;;;;;14.98;6.72;;;10.50;99.90;;;;;;4980977;28;20034;-73
2023/11/22 09:30:45;;;;;;;15.48;7.40;;;10.50;99.90;;;;;;4980140;28;20037;-73
2023/11/22 09:33:15;;;;;;;13.02;6.63;;;10.50;99.90;;;;;;4996476;28;20057;-73
2023/11/22 09:35:46;;;;;;;11.10;6.63;;;10.50;99.90;;;;;;4984225;28;20069;-73
2023/11/22 09:38:12;;;;;;;12.15;6.88;;;10.60;99.90;;;;;;4983796;28;20042;-73
2023/11/22 09:40:42;;;;;;;9.07;5.90;;;10.70;99.90;;;;;;4985375;28;20089;-73
2023/11/22 09:43:08;;;;;;;9.52;5.93;;;10.90;99.90;;;;;;4983426;28;20656;-73
2023/11/22 09:45:34;;;;;;;20.42;7.05;;;10.90;99.90;;;;;;4983030;28;20038;-73
2023/11/22 09:48:02;;;;;;;12.20;7.25;;;10.90;99.90;;;;;;4985057;28;20651;-73
2023/11/22 09:50:46;;;;;;;13.77;6.40;;;11.00;99.90;;;;;;4988718;28;20033;-73
2023/11/22 09:53:38;;;;;;;11.77;6.35;;;11.10;99.90;;;;;;4985132;28;20043;-73
2023/11/22 09:56:06;;;;;;;15.80;5.97;;;11.20;99.60;;;;;;4976508;28;20070;-73
2023/11/22 09:58:36;;;;;;;12.25;6.28;;;11.30;99.70;;;;;;4999017;28;20063;-73
2023/11/22 10:01:05;;;;;;;15.98;5.82;;;11.10;99.90;;;;;;4978382;28;20035;-73
2023/11/22 10:03:31;;;;;;;9.77;6.03;;;11.30;99.90;;;;;;4987413;28;20574;-73
2023/11/22 10:05:58;;;;;;;13.50;6.32;;;11.30;99.70;;;;;;4995295;28;20038;-74
2023/11/22 10:08:29;;;;;;;9.95;5.50;;;11.20;99.80;;;;;;4986810;28;20030;-73
2023/11/22 10:10:55;;;;;;;8.52;5.65;;;10.90;99.90;;;;;;4989039;28;20069;-73
2023/11/22 10:13:22;;;;;;;10.25;6.30;;;11.00;99.90;;;;;;4987385;28;20041;-72
2023/11/22 10:15:49;;;;;;;14.88;7.15;;;10.60;99.90;;;;;;4987493;28;20029;-73
2023/11/22 10:18:15;;;;;;;12.57;6.55;;;10.50;99.90;;;;;;4984762;28;20038;-73
2023/11/22 10:20:42;;;;;;;11.77;6.07;;;10.50;99.90;;;;;;4985432;28;20516;-73
2023/11/22 10:23:15;;;;;;;19.60;6.90;;;10.80;99.90;;;;;;4984060;28;20034;-73
2023/11/22 10:25:52;;;;;;;13.25;6.18;;;10.60;99.90;;;;;;4991067;28;20496;-72
2023/11/22 10:28:26;;;;;;;10.93;6.45;;;10.80;99.90;;;;;;4982484;28;20037;-73
2023/11/22 10:30:51;;;;;;;16.48;6.50;;;10.60;99.90;;;;;;4998134;28;20072;-73
2023/11/22 10:33:22;;;;;;;9.50;6.13;;;10.70;99.90;;;;;;4985504;28;20070;-73
2023/11/22 10:35:51;;;;;;;10.48;6.32;;;10.50;99.90;;;;;;4980394;28;20359;-73
2023/11/22 10:38:17;;;;;;;9.02;5.38;;;10.40;99.90;;;;;;4984983;28;20030;-73
2023/11/22 10:40:44;;;;;;;14.13;5.88;;;10.60;99.90;;;;;;4987174;28;20049;-73
2023/11/22 10:43:14;;;;;;;10.43;4.95;;;10.60;99.90;;;;;;4988526;28;20101;-73
2023/11/22 10:45:44;;;;;;;7.65;4.85;;;10.70;99.90;;;;;;4976685;28;20035;-73
2023/11/22 10:48:10;;;;;;;9.25;4.75;;;10.60;99.90;;;;;;4989656;28;20038;-73
2023/11/22 10:50:37;;;;;;;6.68;4.43;;;10.70;99.90;;;;;;4999306;28;20049;-74
2023/11/22 10:53:07;;;;;;;8.43;5.68;;;10.50;99.90;;;;;;4989706;28;20426;-72
2023/11/22 10:55:34;;;;;;;8.00;4.55;;;10.40;99.90;;;;;;4991306;28;20032;-75
2023/11/22 10:58:04;;;;;;;11.93;5.13;;;10.70;99.90;;;;;;4987283;28;20023;-77
2023/11/22 11:00:33;;;;;;;8.10;5.10;;;10.60;99.90;;;;;;4983419;28;20042;-75
2023/11/22 11:03:04;;;;;;;9.27;4.78;;;10.40;99.90;;;;;;4979675;28;20026;-76
2023/11/22 11:05:31;;;;;;;9.43;5.05;;;10.30;99.90;;;;;;4980681;28;20126;-76
2023/11/22 11:08:10;;;;;;;8.50;4.53;;;10.30;99.90;;;;;;4983154;28;20374;-75
2023/11/22 11:10:42;;;;;;;8.70;4.45;;;10.40;99.90;;;;;;4990886;28;20084;-76
2023/11/22 11:13:18;;;;;;;6.38;4.20;;;10.40;99.90;;;;;;4989517;28;20085;-76
2023/11/22 11:15:45;;;;;;;10.85;4.38;;;10.30;99.90;;;;;;4981821;28;20042;-76
2023/11/22 11:18:15;;;;;;;8.20;4.03;;;10.30;99.90;;;;;;4988842;28;20567;-77
2023/11/22 11:20:58;;;;;;;6.15;3.95;;;10.20;99.90;;;;;;5001101;28;20041;-77
2023/11/22 11:23:28;;;;;;;6.10;4.15;;;10.30;99.90;;;;;;4982074;28;20023;-76
2023/11/22 11:25:56;;;;;;;6.40;3.47;;;10.30;99.90;;;;;;4989756;28;20760;-77
2023/11/22 11:28:25;;;;;;;8.32;3.65;;;10.30;99.90;;;;;;4983343;28;20030;-77
2023/11/22 11:30:53;;;;;;;6.10;2.83;;;10.30;99.90;;;;;;4983942;28;20082;-72
2023/11/22 11:33:33;;;;;;;8.25;3.55;;;10.30;99.90;;;;;;4984051;28;20060;-72
2023/11/22 11:36:00;;;;;;;6.55;3.10;;;10.30;99.90;;;;;;4978352;28;20034;-72
2023/11/22 11:38:35;;;;;;;16.85;3.35;;;10.50;99.90;;;;;;4985741;28;20034;-72
2023/11/22 11:41:10;;;;;;;5.45;3.22;;;10.30;99.90;;;;;;4978574;28;20043;-72
2023/11/22 11:43:51;;;;;;;5.13;3.33;;;10.30;99.90;;;;;;4977936;28;20085;-72
2023/11/22 11:46:17;;;;;;;5.07;3.00;;;10.30;99.90;;;;;;4979748;28;20129;-73
2023/11/22 11:48:51;;;;;;;5.60;3.35;;;10.30;99.90;;;;;;4979686;28;20037;-81
2023/11/22 11:51:27;;;;;;;4.65;3.08;;;10.50;99.90;;;;;;4980673;28;20041;-83
2023/11/22 11:53:54;;;;;;;5.32;3.22;;;10.30;99.90;;;;;;4977775;28;20035;-83
2023/11/22 11:56:19;;;;;;;6.80;3.10;;;10.30;99.90;;;;;;4987867;28;20030;-84
2023/11/22 11:58:46;;;;;;;3.63;2.57;;;10.50;99.90;;;;;;4981410;28;20130;-84
2023/11/22 12:01:25;;;;;;;6.50;2.90;;;10.50;99.90;;;;;;4983363;28;20049;-85
2023/11/22 12:03:51;;;;;;;3.88;2.78;;;10.30;99.90;;;;;;4977873;28;20015;-85
2023/11/22 12:06:18;;;;;;;4.83;2.60;;;10.30;99.90;;;;;;4984786;28;20034;-76
2023/11/22 12:08:44;;;;;;;3.25;2.30;;;10.40;99.90;;;;;;5006309;28;20031;-73
2023/11/22 12:11:10;;;;;;;3.22;2.20;;;10.50;99.90;;;;;;4985178;28;20239;-75
2023/11/22 12:13:46;;;;;;;3.92;1.98;;;10.50;99.90;;;;;;4985858;28;20050;-71
2023/11/22 12:16:14;;;;;;;5.63;2.42;;;10.60;99.90;;;;;;4981659;28;20065;-69
2023/11/22 12:18:48;;;;;;;3.72;1.90;;;10.60;99.90;;;;;;4991618;28;20049;-69
2023/11/22 12:21:15;;;;;;;3.90;2.33;;;10.70;99.90;;;;;;4985973;28;20084;-69
2023/11/22 12:23:41;;;;;;;;;;;10.70;99.90;;;;;;4986317;28;20085;-69
2023/11/22 12:26:12;;;;;;;3.42;2.17;;;10.70;99.90;;;;;;4985978;28;20340;-69
2023/11/22 12:28:40;;;;;;;4.32;2.53;;;10.60;99.90;;;;;;4977485;28;20400;-69
2023/11/22 12:31:10;;;;;;;7.13;2.58;;;10.60;99.90;;;;;;4983360;28;20065;-70
2023/11/22 12:33:37;;;;;;;5.03;2.10;;;10.80;99.90;;;;;;4983103;28;20460;-69
2023/11/22 12:36:03;;;;;;;;;;;10.80;99.60;;;;;;4985243;28;20034;-70
2023/11/22 12:38:29;;;;;;;3.80;2.22;;;10.70;99.90;;;;;;4985786;28;19925;-69
2023/11/22 12:40:58;;;;;;;3.78;2.42;;;10.60;99.20;;;;;;4984748;28;20035;-69
2023/11/22 12:43:28;;;;;;;4.05;2.83;;;10.80;99.50;;;;;;4982651;28;20038;-70
2023/11/22 12:45:59;;;;;;;3.95;2.38;;;10.50;99.60;;;;;;4987783;28;20050;-69